Time;durP1;ratioP1;P1;durP2;ratioP2;P2;SDS_P1;SDS_P2;PMS_P1;PMS_P2;Temp;Humidity;BMP_temperature;BMP_pressure;BME280_temperature;BME280_humidity;BME280_pressure;Samples;Min_cycle;Max_cycle;Signal;HPM_P1;HPM_P2
2023/02/15 00:02:10;;;;;;;32.58;19.85;;;3.00;99.90;;;;;;5068879;28;20047;-73
2023/02/15 00:04:47;;;;;;;31.77;19.98;;;3.00;99.90;;;;;;5080500;28;20103;-74
2023/02/15 00:07:15;;;;;;;31.23;20.42;;;2.90;99.90;;;;;;5069113;28;20048;-74
2023/02/15 00:09:41;;;;;;;32.38;20.35;;;2.90;99.90;;;;;;5069344;28;20110;-74
2023/02/15 00:12:08;;;;;;;33.17;19.95;;;2.90;99.90;;;;;;5075419;28;20115;-74
2023/02/15 00:14:34;;;;;;;28.75;20.08;;;3.30;99.90;;;;;;5061989;28;20039;-74
2023/02/15 00:16:59;;;;;;;28.08;18.63;;;2.90;99.90;;;;;;5057935;28;20396;-74
2023/02/15 00:19:25;;;;;;;28.52;19.05;;;2.80;99.90;;;;;;5069955;28;20036;-74
2023/02/15 00:21:57;;;;;;;26.75;18.17;;;2.80;99.90;;;;;;5067391;28;20040;-74
2023/02/15 00:24:23;;;;;;;28.63;18.70;;;2.80;99.90;;;;;;5059508;28;20036;-73
2023/02/15 00:26:50;;;;;;;26.15;17.77;;;2.80;99.90;;;;;;5053480;28;20048;-74
2023/02/15 00:29:18;;;;;;;26.10;17.83;;;2.80;99.90;;;;;;5057228;28;20557;-74
2023/02/15 00:31:44;;;;;;;24.80;17.45;;;2.80;99.90;;;;;;5056808;28;20045;-74
2023/02/15 00:34:16;;;;;;;23.17;17.25;;;2.80;99.90;;;;;;5079440;28;20114;-74
2023/02/15 00:36:43;;;;;;;22.77;17.08;;;2.70;99.90;;;;;;5067911;28;20093;-74
2023/02/15 00:39:09;;;;;;;23.38;17.50;;;2.70;99.90;;;;;;5059881;28;20385;-74
2023/02/15 00:41:35;;;;;;;27.90;19.02;;;2.70;99.90;;;;;;5059696;28;20139;-73
2023/02/15 00:44:01;;;;;;;26.60;19.23;;;2.70;99.90;;;;;;5083002;28;20039;-73
2023/02/15 00:46:27;;;;;;;31.38;20.75;;;2.70;99.90;;;;;;5069098;28;20044;-74
2023/02/15 00:48:53;;;;;;;29.15;20.95;;;2.70;99.90;;;;;;5057116;28;20084;-73
2023/02/15 00:51:20;;;;;;;32.03;21.20;;;3.00;99.90;;;;;;5067724;28;20039;-74
2023/02/15 00:53:46;;;;;;;29.13;20.80;;;2.60;99.90;;;;;;5067680;28;20054;-74
2023/02/15 00:56:12;;;;;;;28.40;20.30;;;2.60;99.90;;;;;;5057028;28;20043;-74
2023/02/15 00:58:38;;;;;;;29.88;21.13;;;2.60;99.90;;;;;;5057578;28;20126;-74
2023/02/15 01:01:06;;;;;;;29.23;20.55;;;2.60;99.90;;;;;;5075262;28;20042;-76
2023/02/15 01:03:33;;;;;;;31.02;20.50;;;2.60;99.90;;;;;;5073234;28;20067;-74
2023/02/15 01:05:59;;;;;;;30.17;20.00;;;2.60;99.90;;;;;;5087800;28;20035;-74
2023/02/15 01:08:25;;;;;;;29.20;19.92;;;2.60;99.90;;;;;;5090930;28;20040;-74
2023/02/15 01:10:54;;;;;;;34.25;21.98;;;2.50;99.90;;;;;;5072482;28;20078;-73
2023/02/15 01:13:20;;;;;;;36.65;22.05;;;2.50;99.90;;;;;;5051834;28;20063;-74
2023/02/15 01:15:55;;;;;;;38.10;21.83;;;2.50;99.90;;;;;;5063935;28;20048;-74
2023/02/15 01:18:24;;;;;;;37.38;23.05;;;2.50;99.90;;;;;;5045923;28;20127;-74
2023/02/15 01:20:49;;;;;;;38.22;24.33;;;2.40;99.90;;;;;;5091495;28;20043;-75
2023/02/15 01:23:15;;;;;;;40.03;24.15;;;3.00;99.90;;;;;;5073600;28;20066;-74
2023/02/15 01:25:41;;;;;;;39.00;23.52;;;2.40;99.90;;;;;;5072734;28;20065;-74
2023/02/15 01:28:07;;;;;;;37.58;23.38;;;2.40;99.90;;;;;;5069331;28;20087;-74
2023/02/15 01:30:33;;;;;;;32.58;20.92;;;2.40;99.90;;;;;;5075158;28;20084;-74
2023/02/15 01:33:00;;;;;;;32.97;21.40;;;2.40;99.90;;;;;;5076988;28;20123;-74
2023/02/15 01:35:29;;;;;;;32.97;19.65;;;2.40;99.90;;;;;;5071639;28;20499;-74
2023/02/15 01:37:58;;;;;;;31.77;20.45;;;2.40;99.90;;;;;;5079313;28;20046;-74
2023/02/15 01:40:24;;;;;;;31.35;19.35;;;2.40;99.90;;;;;;5077486;28;20051;-74
2023/02/15 01:42:54;;;;;;;27.63;19.33;;;2.30;99.90;;;;;;5090274;28;20044;-74
2023/02/15 01:45:31;;;;;;;25.85;18.80;;;2.30;99.90;;;;;;5077754;28;20071;-74
2023/02/15 01:48:09;;;;;;;28.75;19.70;;;2.30;99.90;;;;;;5056182;28;20432;-75
2023/02/15 01:50:41;;;;;;;28.40;19.90;;;2.20;99.90;;;;;;5079395;28;20036;-74
2023/02/15 01:53:26;;;;;;;28.00;18.97;;;2.20;99.90;;;;;;5086397;28;20040;-74
2023/02/15 01:55:58;;;;;;;29.92;20.40;;;2.20;99.90;;;;;;5079005;28;20543;-74
2023/02/15 01:58:27;;;;;;;27.67;19.73;;;2.20;99.90;;;;;;5102424;28;20043;-74
2023/02/15 02:00:55;;;;;;;31.95;21.08;;;2.10;99.90;;;;;;5082203;28;20096;-74
2023/02/15 02:04:07;;;;;;;30.27;20.02;;;2.20;99.90;;;;;;5078184;28;20055;-73
2023/02/15 02:06:35;;;;;;;28.55;20.83;;;2.20;99.90;;;;;;5103161;28;20572;-74
2023/02/15 02:09:02;;;;;;;33.67;22.38;;;2.20;99.90;;;;;;5083579;28;20036;-74
2023/02/15 02:11:31;;;;;;;34.75;22.52;;;2.20;99.90;;;;;;5086335;28;20046;-74
2023/02/15 02:13:57;;;;;;;30.95;21.42;;;2.20;99.90;;;;;;5069895;28;20036;-74
2023/02/15 02:16:38;;;;;;;33.40;21.67;;;2.10;99.90;;;;;;5095160;28;20442;-74
2023/02/15 02:19:33;;;;;;;31.52;21.35;;;2.10;99.90;;;;;;5096368;28;20404;-73
2023/02/15 02:22:17;;;;;;;34.88;21.58;;;2.10;99.90;;;;;;5084868;28;20040;-74
2023/02/15 02:25:18;;;;;;;35.22;21.90;;;2.10;99.90;;;;;;5077650;28;20067;-74
2023/02/15 02:27:52;;;;;;;32.95;22.10;;;2.00;99.90;;;;;;5077324;28;20040;-74
2023/02/15 02:30:33;;;;;;;32.72;22.20;;;2.00;99.90;;;;;;5060369;28;20039;-74
2023/02/15 02:33:33;;;;;;;30.88;21.40;;;2.00;99.90;;;;;;5076491;28;20036;-74
2023/02/15 02:36:19;;;;;;;31.08;20.88;;;2.00;99.90;;;;;;5084355;28;20055;-74
2023/02/15 02:39:05;;;;;;;33.08;22.48;;;2.00;99.90;;;;;;5078854;28;20039;-74
2023/02/15 02:41:45;;;;;;;33.05;22.02;;;1.90;99.90;;;;;;5103270;28;20453;-74
2023/02/15 02:44:39;;;;;;;30.00;20.48;;;2.00;99.90;;;;;;5096402;28;20144;-74
2023/02/15 02:47:13;;;;;;;31.15;20.33;;;1.90;99.90;;;;;;5049031;28;20443;-73
2023/02/15 02:49:41;;;;;;;31.50;21.40;;;1.90;99.90;;;;;;5073553;28;20044;-73
2023/02/15 02:52:43;;;;;;;28.80;20.60;;;1.90;99.90;;;;;;5090991;28;20071;-74
2023/02/15 02:55:21;;;;;;;32.92;22.33;;;1.90;99.90;;;;;;5069834;28;20040;-74
2023/02/15 02:58:05;;;;;;;35.80;23.42;;;1.90;99.90;;;;;;5074793;28;20059;-74
2023/02/15 03:00:36;;;;;;;34.63;23.17;;;1.90;99.90;;;;;;5082611;28;20127;-74
2023/02/15 03:03:11;;;;;;;36.33;23.48;;;1.80;99.90;;;;;;5096080;28;20051;-74
2023/02/15 03:05:44;;;;;;;38.47;24.92;;;1.80;99.90;;;;;;5080543;28;20435;-74
2023/02/15 03:08:10;;;;;;;;;;;1.80;99.90;;;;;;5070371;28;20051;-74
2023/02/15 03:10:39;;;;;;;39.15;25.25;;;1.80;99.90;;;;;;5059563;28;19973;-74
2023/02/15 03:13:08;;;;;;;42.45;27.00;;;1.80;99.90;;;;;;5075863;28;20032;-74
2023/02/15 03:18:30;;;;;;;37.78;24.10;;;1.80;99.90;;;;;;5063946;28;20130;-74
2023/02/15 03:21:01;;;;;;;35.75;23.63;;;1.70;99.90;;;;;;5071221;28;20047;-75
2023/02/15 03:23:28;;;;;;;39.13;24.67;;;1.70;99.90;;;;;;5065325;28;20063;-74
2023/02/15 03:26:00;;;;;;;35.85;23.40;;;1.70;99.90;;;;;;5072350;28;20040;-74
2023/02/15 03:28:40;;;;;;;40.10;24.33;;;1.70;99.90;;;;;;5081109;28;20130;-74
2023/02/15 03:31:09;;;;;;;36.08;24.05;;;1.70;99.90;;;;;;5081968;28;20039;-74
2023/02/15 03:33:41;;;;;;;36.55;24.25;;;1.70;99.90;;;;;;5065293;28;20478;-74
2023/02/15 03:36:35;;;;;;;34.05;24.17;;;1.70;99.90;;;;;;5084967;28;20047;-75
2023/02/15 03:39:05;;;;;;;38.42;25.10;;;1.70;99.90;;;;;;5073208;28;20557;-73
2023/02/15 03:41:39;;;;;;;35.95;23.98;;;1.70;99.90;;;;;;5062135;28;20050;-73
2023/02/15 03:44:24;;;;;;;34.97;24.08;;;1.60;99.90;;;;;;5073584;28;20040;-74
2023/02/15 03:47:15;;;;;;;38.97;24.65;;;1.60;99.90;;;;;;5069551;28;20052;-74
2023/02/15 03:51:33;;;;;;;36.75;23.90;;;1.60;99.90;;;;;;5064920;28;20047;-74
2023/02/15 03:52:51;;;;;;;33.67;23.65;;;1.60;99.90;;;;;;5088117;28;20082;-74
2023/02/15 03:55:17;;;;;;;34.75;23.30;;;1.60;99.90;;;;;;5064623;28;20063;-74
2023/02/15 04:03:29;;;;;;;32.30;22.35;;;1.50;99.90;;;;;;5072168;28;20075;-74
2023/02/15 04:05:55;;;;;;;31.95;21.38;;;1.50;99.90;;;;;;5054355;28;20082;-74
2023/02/15 04:10:51;;;;;;;32.50;21.60;;;1.50;99.90;;;;;;5057240;28;20072;-74
2023/02/15 04:11:06;;;;;;;29.73;21.85;;;1.50;99.90;;;;;;5077631;28;20040;-74
2023/02/15 04:13:32;;;;;;;29.40;21.25;;;1.50;99.90;;;;;;5073379;28;20403;-73
2023/02/15 04:16:04;;;;;;;29.55;21.13;;;1.50;99.90;;;;;;5073129;28;20043;-73
2023/02/15 04:26:42;;;;;;;24.90;17.90;;;1.40;99.90;;;;;;5072631;28;20048;-74
2023/02/15 04:29:08;;;;;;;22.60;17.60;;;1.30;99.90;;;;;;5056824;28;20040;-74
2023/02/15 04:31:33;;;;;;;23.98;17.33;;;1.30;99.90;;;;;;5073618;28;20071;-74
2023/02/15 04:33:59;;;;;;;23.88;18.13;;;1.20;99.90;;;;;;5075534;28;20047;-74
2023/02/15 04:36:25;;;;;;;25.90;19.45;;;1.20;99.90;;;;;;5069656;28;20036;-74
2023/02/15 04:38:50;;;;;;;32.25;21.13;;;1.20;99.90;;;;;;5056304;28;20451;-74
2023/02/15 04:41:16;;;;;;;28.58;21.05;;;1.20;99.90;;;;;;5066774;28;20043;-74
2023/02/15 04:43:41;;;;;;;28.67;20.33;;;2.20;99.90;;;;;;5072712;28;20126;-73
2023/02/15 04:46:07;;;;;;;29.30;21.52;;;1.20;99.90;;;;;;5069653;28;20038;-74
2023/02/15 04:48:32;;;;;;;28.75;21.27;;;1.20;99.90;;;;;;5076463;28;20489;-74
2023/02/15 04:50:58;;;;;;;31.02;21.77;;;1.20;99.90;;;;;;5084257;28;20039;-74
2023/02/15 04:53:24;;;;;;;32.58;22.55;;;1.20;99.90;;;;;;5047015;28;20044;-74
2023/02/15 04:55:49;;;;;;;29.15;21.70;;;1.20;99.90;;;;;;5068741;28;20044;-74
2023/02/15 04:58:15;;;;;;;30.55;21.08;;;1.40;99.90;;;;;;5074361;28;20044;-74
2023/02/15 05:00:40;;;;;;;29.33;21.20;;;1.20;99.90;;;;;;5093855;28;20040;-74
2023/02/15 05:03:06;;;;;;;32.90;22.35;;;2.20;99.90;;;;;;5073295;28;20192;-74
2023/02/15 05:05:31;;;;;;;32.88;22.20;;;1.20;99.90;;;;;;5068733;28;20040;-74
2023/02/15 05:07:57;;;;;;;32.33;21.73;;;1.20;99.90;;;;;;5067879;28;20043;-74
2023/02/15 05:10:23;;;;;;;35.20;23.02;;;1.20;99.90;;;;;;5088935;28;20074;-74
2023/02/15 05:12:48;;;;;;;37.35;23.55;;;1.20;99.90;;;;;;5070983;28;20607;-74
2023/02/15 05:15:14;;;;;;;34.75;23.02;;;1.20;99.90;;;;;;5052322;28;20038;-74
2023/02/15 05:17:40;;;;;;;37.67;22.92;;;1.20;99.90;;;;;;5083452;28;20047;-75
2023/02/15 05:20:06;;;;;;;36.47;24.00;;;1.20;99.90;;;;;;5074522;28;20118;-74
2023/02/15 05:22:32;;;;;;;35.55;22.50;;;1.20;99.90;;;;;;5054824;28;20051;-74
2023/02/15 05:30:25;;;;;;;36.42;23.20;;;1.10;99.90;;;;;;5073116;28;20051;-76
2023/02/15 05:32:51;;;;;;;34.10;23.40;;;1.10;99.90;;;;;;5081185;28;20028;-75
2023/02/15 05:35:17;;;;;;;32.80;22.27;;;1.10;99.90;;;;;;5072684;28;20040;-75
2023/02/15 05:37:44;;;;;;;32.83;22.52;;;1.10;99.90;;;;;;5097802;28;20054;-76
2023/02/15 05:40:10;;;;;;;36.30;23.67;;;1.10;99.90;;;;;;5066253;28;20040;-76
2023/02/15 05:42:36;;;;;;;33.85;22.90;;;1.10;99.90;;;;;;5068608;28;20059;-75
2023/02/15 05:45:03;;;;;;;34.70;22.48;;;1.10;99.90;;;;;;5072688;28;20040;-75
2023/02/15 05:47:29;;;;;;;34.58;22.75;;;1.10;99.90;;;;;;5076113;28;20055;-75
2023/02/15 05:49:54;;;;;;;34.30;23.15;;;1.10;99.90;;;;;;5071690;28;20040;-75
2023/02/15 05:52:20;;;;;;;33.40;23.17;;;1.10;99.90;;;;;;5075978;28;20063;-76
2023/02/15 05:54:46;;;;;;;33.83;23.02;;;1.20;99.90;;;;;;5054134;28;20086;-77
2023/02/15 05:57:11;;;;;;;35.55;23.75;;;1.20;99.90;;;;;;5063243;28;20040;-77
2023/02/15 05:59:37;;;;;;;33.88;22.90;;;1.20;99.90;;;;;;5063881;28;20048;-77
2023/02/15 06:02:02;;;;;;;37.05;23.63;;;1.20;99.90;;;;;;5070340;28;20036;-76
2023/02/15 06:04:28;;;;;;;34.15;22.90;;;1.20;99.90;;;;;;5075805;28;20533;-77
2023/02/15 06:06:54;;;;;;;33.00;22.27;;;1.10;99.90;;;;;;5064174;28;20036;-77
2023/02/15 06:09:19;;;;;;;34.28;22.60;;;1.10;99.90;;;;;;5069772;28;20031;-76
2023/02/15 06:11:46;;;;;;;35.13;23.40;;;2.00;99.90;;;;;;5060188;28;20044;-77
2023/02/15 06:14:11;;;;;;;37.00;22.15;;;1.10;99.90;;;;;;5070685;28;20488;-77
2023/02/15 06:16:37;;;;;;;36.63;23.73;;;1.10;99.90;;;;;;5071528;28;20040;-77
2023/02/15 06:19:03;;;;;;;36.55;22.38;;;1.10;99.90;;;;;;5064070;28;20590;-77
2023/02/15 06:21:30;;;;;;;36.95;23.38;;;1.10;99.90;;;;;;5073712;28;20448;-76
2023/02/15 06:23:56;;;;;;;37.55;23.88;;;1.10;99.90;;;;;;5076157;28;20067;-76
2023/02/15 06:26:21;;;;;;;35.17;23.27;;;1.00;99.90;;;;;;5081290;28;20067;-76
2023/02/15 06:28:47;;;;;;;38.22;23.52;;;1.00;99.90;;;;;;5076233;28;20031;-77
2023/02/15 06:31:12;;;;;;;35.60;24.10;;;1.00;99.90;;;;;;5078933;28;20123;-77
2023/02/15 06:33:38;;;;;;;37.28;23.67;;;1.00;99.90;;;;;;5074215;28;20039;-77
2023/02/15 06:36:04;;;;;;;36.10;22.85;;;1.00;99.90;;;;;;5074642;28;20392;-76
2023/02/15 06:38:30;;;;;;;40.40;23.58;;;1.00;99.90;;;;;;5069079;28;20047;-77
2023/02/15 06:40:56;;;;;;;39.60;24.90;;;1.10;99.90;;;;;;5106392;28;20124;-76
2023/02/15 06:43:22;;;;;;;40.67;24.75;;;1.00;99.90;;;;;;5103497;28;20072;-76
2023/02/15 06:45:48;;;;;;;39.65;24.70;;;1.10;99.90;;;;;;5088357;28;20032;-77
2023/02/15 06:48:13;;;;;;;42.72;25.20;;;1.10;99.90;;;;;;5075765;28;20561;-76
2023/02/15 06:50:39;;;;;;;46.47;24.73;;;1.10;99.90;;;;;;5075926;28;20044;-77
2023/02/15 06:53:05;;;;;;;43.25;25.75;;;1.10;99.90;;;;;;5100767;28;20032;-76
2023/02/15 06:55:30;;;;;;;41.58;25.10;;;1.20;99.90;;;;;;5075674;28;20035;-76
2023/02/15 06:57:56;;;;;;;44.95;24.70;;;1.20;99.90;;;;;;5078534;28;20035;-77
2023/02/15 07:00:23;;;;;;;43.30;25.58;;;1.30;99.90;;;;;;5070831;28;20028;-76
2023/02/15 07:02:57;;;;;;;49.95;25.23;;;1.30;99.90;;;;;;5082162;28;20377;-76
2023/02/15 07:05:30;;;;;;;48.92;26.23;;;1.30;99.90;;;;;;5078441;28;20050;-77
2023/02/15 07:07:57;;;;;;;44.60;25.23;;;1.40;99.90;;;;;;5090149;28;20115;-76
2023/02/15 07:10:23;;;;;;;47.10;26.60;;;1.40;99.90;;;;;;5071106;28;20032;-77
2023/02/15 07:12:48;;;;;;;49.42;26.80;;;1.40;99.90;;;;;;5078986;28;20450;-76
2023/02/15 07:15:17;;;;;;;45.67;26.38;;;1.40;99.90;;;;;;5056714;28;20039;-77
2023/02/15 07:17:43;;;;;;;48.33;25.85;;;1.40;99.90;;;;;;5072393;28;20065;-75
2023/02/15 07:20:15;;;;;;;42.58;24.95;;;1.40;99.90;;;;;;5074827;28;20071;-75
2023/02/15 07:22:42;;;;;;;48.00;25.75;;;1.50;99.90;;;;;;5061854;28;20075;-74
2023/02/15 07:25:10;;;;;;;51.55;26.23;;;1.50;99.90;;;;;;5072037;28;20503;-75
2023/02/15 07:27:35;;;;;;;43.78;26.02;;;1.50;99.90;;;;;;5075165;28;20048;-74
2023/02/15 07:30:01;;;;;;;46.95;26.60;;;1.50;99.90;;;;;;5071836;28;20090;-73
2023/02/15 07:32:32;;;;;;;47.47;26.25;;;1.60;99.90;;;;;;5069429;28;20104;-74
2023/02/15 07:34:58;;;;;;;49.78;27.52;;;1.60;99.90;;;;;;5061825;28;20040;-74
2023/02/15 07:37:24;;;;;;;49.78;28.38;;;1.60;99.90;;;;;;5069748;28;20035;-74
2023/02/15 07:39:50;;;;;;;52.13;29.58;;;1.60;99.90;;;;;;5066192;28;20093;-74
2023/02/15 07:42:16;;;;;;;55.58;29.67;;;1.60;99.90;;;;;;5082204;28;20039;-74
2023/02/15 07:44:41;;;;;;;50.83;29.05;;;1.60;99.90;;;;;;5062074;28;20043;-74
2023/02/15 07:47:07;;;;;;;50.92;29.05;;;1.60;99.90;;;;;;5085838;28;20039;-74
2023/02/15 07:49:32;;;;;;;48.50;27.48;;;1.60;99.90;;;;;;5065026;28;20033;-74
2023/02/15 07:52:00;;;;;;;53.85;26.85;;;1.60;99.90;;;;;;5064563;28;20081;-73
2023/02/15 07:54:26;;;;;;;48.72;26.13;;;1.70;99.90;;;;;;5060153;28;20079;-73
2023/02/15 07:56:52;;;;;;;47.67;26.15;;;1.70;99.90;;;;;;5046787;28;20515;-74
2023/02/15 07:59:17;;;;;;;45.85;24.70;;;1.70;99.90;;;;;;5078690;28;20515;-74
2023/02/15 08:01:43;;;;;;;50.85;26.17;;;1.70;99.90;;;;;;5074078;28;20044;-75
2023/02/15 08:04:10;;;;;;;50.53;26.73;;;1.80;99.90;;;;;;5056084;28;20409;-73
2023/02/15 08:06:37;;;;;;;50.05;26.67;;;1.80;99.90;;;;;;5056046;28;20059;-74
2023/02/15 08:09:05;;;;;;;50.58;27.00;;;1.90;99.90;;;;;;5077001;28;20420;-73
2023/02/15 08:11:36;;;;;;;55.50;26.92;;;1.90;99.90;;;;;;5058829;28;20286;-73
2023/02/15 08:14:10;;;;;;;48.13;26.10;;;1.90;99.90;;;;;;5055334;28;20032;-73
2023/02/15 08:16:40;;;;;;;49.55;26.60;;;2.00;99.90;;;;;;5055325;28;20047;-73
2023/02/15 08:19:10;;;;;;;50.20;26.48;;;2.00;99.90;;;;;;5054653;28;20051;-74
2023/02/15 08:21:39;;;;;;;53.25;26.65;;;2.00;99.90;;;;;;5074978;28;20039;-74
2023/02/15 08:24:06;;;;;;;48.55;26.77;;;2.10;99.90;;;;;;5057787;28;20072;-74
2023/02/15 08:26:32;;;;;;;50.88;27.13;;;2.10;99.90;;;;;;5056172;28;20040;-74
2023/02/15 08:28:59;;;;;;;52.70;27.45;;;2.20;99.90;;;;;;5069107;28;20146;-74
2023/02/15 08:31:25;;;;;;;50.20;27.45;;;2.20;99.90;;;;;;5066095;28;20468;-74
2023/02/15 08:33:53;;;;;;;54.05;27.13;;;2.20;99.90;;;;;;5069303;28;20492;-74
2023/02/15 08:36:21;;;;;;;51.47;27.83;;;2.30;99.90;;;;;;5065403;28;20064;-73
2023/02/15 08:38:47;;;;;;;57.83;27.63;;;2.30;99.90;;;;;;5066997;28;20043;-76
2023/02/15 08:41:18;;;;;;;54.85;29.17;;;2.30;99.90;;;;;;5062016;28;20046;-76
2023/02/15 08:43:46;;;;;;;55.85;28.90;;;2.40;99.90;;;;;;5066926;28;20040;-74
2023/02/15 08:46:13;;;;;;;54.47;28.50;;;2.40;99.90;;;;;;5066740;28;20032;-75
2023/02/15 08:48:39;;;;;;;55.00;28.35;;;2.90;99.90;;;;;;5061959;28;20033;-74
2023/02/15 08:51:17;;;;;;;52.03;28.52;;;2.50;99.90;;;;;;5064630;28;20033;-75
2023/02/15 08:53:45;;;;;;;58.42;29.67;;;2.50;99.90;;;;;;5062328;28;20040;-74
2023/02/15 08:56:12;;;;;;;56.85;29.27;;;2.60;99.90;;;;;;5068067;28;20031;-74
2023/02/15 08:58:38;;;;;;;60.78;30.20;;;2.60;99.90;;;;;;5062984;28;20086;-74
2023/02/15 09:01:20;;;;;;;58.03;29.13;;;2.70;99.90;;;;;;5062486;28;20037;-74
2023/02/15 09:03:48;;;;;;;56.83;29.20;;;2.70;99.90;;;;;;5062192;28;20562;-75
2023/02/15 09:06:14;;;;;;;54.95;29.00;;;2.80;99.90;;;;;;5083600;28;20047;-74
2023/02/15 09:08:40;;;;;;;57.58;30.13;;;2.80;99.90;;;;;;5054903;28;20040;-74
2023/02/15 09:11:13;;;;;;;58.45;30.65;;;2.90;99.90;;;;;;5072420;28;20031;-73
2023/02/15 09:13:39;;;;;;;60.90;30.63;;;2.90;99.90;;;;;;5073607;28;20333;-74
2023/02/15 09:16:07;;;;;;;60.45;30.10;;;3.00;99.90;;;;;;5072723;28;20369;-74
2023/02/15 09:18:37;;;;;;;59.95;31.52;;;3.10;99.90;;;;;;5062018;28;20043;-73
2023/02/15 09:21:13;;;;;;;64.47;32.35;;;3.10;99.90;;;;;;5070175;28;20499;-73
2023/02/15 09:23:40;;;;;;;59.47;30.63;;;3.20;99.90;;;;;;5106276;28;20093;-73
2023/02/15 09:26:15;;;;;;;59.70;31.42;;;3.20;99.90;;;;;;5053248;28;20055;-74
2023/02/15 09:28:41;;;;;;;61.40;32.10;;;3.30;99.90;;;;;;5090213;28;20515;-73
2023/02/15 09:31:18;;;;;;;58.60;32.20;;;3.30;99.90;;;;;;5070601;28;20028;-73
2023/02/15 09:33:45;;;;;;;58.95;31.52;;;3.40;99.90;;;;;;5061507;28;20132;-73
2023/02/15 09:36:21;;;;;;;62.97;32.25;;;3.50;99.90;;;;;;5071458;28;20107;-74
2023/02/15 09:38:48;;;;;;;62.97;32.92;;;3.50;99.90;;;;;;5074440;28;20078;-73
2023/02/15 09:41:37;;;;;;;60.90;32.15;;;3.60;99.90;;;;;;5073629;28;20096;-73
2023/02/15 09:44:16;;;;;;;61.30;31.85;;;3.70;99.90;;;;;;5091151;28;20037;-74
2023/02/15 09:46:52;;;;;;;61.50;32.70;;;3.70;99.90;;;;;;5065110;28;20049;-74
2023/02/15 09:49:59;;;;;;;57.58;31.70;;;3.80;99.90;;;;;;5066388;28;20504;-75
2023/02/15 09:52:47;;;;;;;65.40;31.98;;;3.90;99.90;;;;;;5055796;28;20572;-73
2023/02/15 09:55:36;;;;;;;63.08;33.47;;;4.00;99.90;;;;;;5066127;28;20040;-74
2023/02/15 09:58:47;;;;;;;63.35;33.75;;;4.10;99.90;;;;;;5079547;28;20054;-73
2023/02/15 10:01:36;;;;;;;61.35;33.63;;;4.20;99.90;;;;;;5074585;28;20139;-73
2023/02/15 10:04:13;;;;;;;62.15;33.05;;;4.30;99.90;;;;;;5077949;28;20075;-73
2023/02/15 10:06:54;;;;;;;62.60;34.05;;;4.40;99.90;;;;;;5089624;28;20044;-73
2023/02/15 10:09:41;;;;;;;61.70;32.67;;;4.50;99.90;;;;;;5054740;28;20063;-73
2023/02/15 10:12:15;;;;;;;67.30;34.50;;;4.50;99.90;;;;;;5076555;28;20055;-73
2023/02/15 10:15:06;;;;;;;61.20;33.20;;;4.60;99.90;;;;;;5069388;28;20119;-73
2023/02/15 10:17:56;;;;;;;60.92;32.33;;;4.80;99.90;;;;;;5070856;28;20051;-73
2023/02/15 10:20:43;;;;;;;58.95;32.70;;;4.80;99.90;;;;;;5076017;28;20160;-73
2023/02/15 10:23:57;;;;;;;66.28;33.65;;;4.90;99.90;;;;;;5075813;28;20051;-73
2023/02/15 10:26:34;;;;;;;58.28;31.63;;;5.00;99.90;;;;;;5071923;28;20060;-73
2023/02/15 10:29:16;;;;;;;62.80;33.10;;;5.10;99.90;;;;;;5075118;28;20090;-73
2023/02/15 10:32:04;;;;;;;65.13;33.35;;;5.20;99.90;;;;;;5079465;28;20415;-74
2023/02/15 10:34:37;;;;;;;63.65;33.75;;;5.30;99.90;;;;;;5087994;28;20085;-74
2023/02/15 10:37:45;;;;;;;64.20;34.60;;;5.40;99.90;;;;;;5075779;28;20373;-73
2023/02/15 10:40:24;;;;;;;65.13;35.13;;;5.50;99.90;;;;;;5047030;28;20060;-74
2023/02/15 10:43:06;;;;;;;61.30;35.50;;;5.60;99.90;;;;;;5073761;28;20081;-73
2023/02/15 10:46:05;;;;;;;56.60;32.97;;;5.70;99.90;;;;;;5075235;28;20051;-73
2023/02/15 10:48:44;;;;;;;64.13;33.35;;;5.70;99.90;;;;;;5069464;28;20040;-73
2023/02/15 10:51:29;;;;;;;61.47;33.67;;;5.80;99.90;;;;;;5074095;28;20453;-74
2023/02/15 10:54:29;;;;;;;62.50;34.17;;;5.90;99.90;;;;;;5075525;28;20504;-74
2023/02/15 10:57:09;;;;;;;62.00;34.00;;;6.10;99.90;;;;;;5071167;28;20445;-73
2023/02/15 11:00:01;;;;;;;64.03;33.70;;;6.20;99.90;;;;;;5071336;28;20403;-73
2023/02/15 11:02:55;;;;;;;58.10;32.95;;;6.30;99.90;;;;;;5073900;28;20117;-74
2023/02/15 11:06:06;;;;;;;60.80;33.47;;;6.50;99.90;;;;;;5069413;28;20122;-74
2023/02/15 11:08:36;;;;;;;57.25;33.53;;;6.60;99.90;;;;;;5067395;28;20527;-73
2023/02/15 11:11:19;;;;;;;57.72;33.83;;;6.70;99.90;;;;;;5073043;28;20047;-73
2023/02/15 11:13:49;;;;;;;63.97;33.95;;;6.90;99.90;;;;;;5065435;28;20093;-74
2023/02/15 11:16:30;;;;;;;59.35;32.40;;;7.00;99.90;;;;;;5084904;28;20024;-74
2023/02/15 11:19:05;;;;;;;58.55;32.58;;;7.10;99.90;;;;;;5066407;28;20522;-73
2023/02/15 11:21:38;;;;;;;58.97;34.45;;;7.30;99.90;;;;;;5068487;28;20072;-74
2023/02/15 11:24:18;;;;;;;62.25;34.58;;;7.50;99.90;;;;;;5063935;28;20055;-74
2023/02/15 11:26:46;;;;;;;59.03;32.03;;;7.70;99.90;;;;;;5074429;28;20086;-74
2023/02/15 11:29:22;;;;;;;57.55;32.35;;;7.80;99.90;;;;;;5076881;28;20071;-73
2023/02/15 11:31:54;;;;;;;53.25;30.75;;;8.00;99.90;;;;;;5076208;28;20056;-74
2023/02/15 11:34:26;;;;;;;52.35;29.75;;;8.30;99.90;;;;;;5068302;28;20111;-74
2023/02/15 11:36:55;;;;;;;53.33;28.55;;;8.40;99.90;;;;;;5071217;28;20119;-74
2023/02/15 11:39:21;;;;;;;51.58;30.73;;;8.50;99.90;;;;;;5074672;28;20044;-74
2023/02/15 11:41:53;;;;;;;52.63;30.63;;;8.60;99.90;;;;;;5066589;28;20074;-74
2023/02/15 11:44:22;;;;;;;51.33;29.83;;;8.70;99.90;;;;;;5064788;28;20036;-74
2023/02/15 11:46:49;;;;;;;51.58;29.02;;;8.80;99.90;;;;;;5058916;28;20565;-74
2023/02/15 11:49:25;;;;;;;50.00;30.17;;;8.90;99.90;;;;;;5059281;28;20032;-74
2023/02/15 11:51:53;;;;;;;54.78;30.73;;;8.90;99.90;;;;;;5068755;28;20081;-73
2023/02/15 11:54:23;;;;;;;48.42;30.20;;;8.90;99.90;;;;;;5067316;28;20444;-73
2023/02/15 11:56:49;;;;;;;49.90;28.38;;;9.00;99.90;;;;;;5055048;28;20492;-73
2023/02/15 11:59:24;;;;;;;52.15;29.48;;;9.10;99.90;;;;;;5063321;28;20040;-73
2023/02/15 12:01:51;;;;;;;49.95;28.35;;;9.20;99.90;;;;;;5058757;28;20036;-73
2023/02/15 12:04:36;;;;;;;48.00;28.60;;;9.40;99.90;;;;;;5065276;28;20039;-73
2023/02/15 12:07:12;;;;;;;51.42;30.63;;;9.50;99.90;;;;;;5067599;28;20102;-72
2023/02/15 12:10:00;;;;;;;45.38;26.88;;;9.60;99.90;;;;;;5100875;28;20040;-73
2023/02/15 12:12:31;;;;;;;48.97;28.45;;;9.70;99.90;;;;;;5059398;28;20123;-73
2023/02/15 12:14:59;;;;;;;46.28;27.67;;;9.80;99.90;;;;;;5058296;28;20029;-72
2023/02/15 12:17:32;;;;;;;49.67;27.83;;;9.90;99.90;;;;;;5059038;28;20051;-70
2023/02/15 12:20:01;;;;;;;46.08;27.15;;;10.00;99.90;;;;;;5056995;28;20112;-72
2023/02/15 12:22:33;;;;;;;45.60;26.60;;;10.10;99.90;;;;;;5068195;28;20044;-73
2023/02/15 12:25:19;;;;;;;47.90;28.20;;;10.00;99.90;;;;;;5072673;28;20108;-73
2023/02/15 12:27:46;;;;;;;50.58;27.40;;;10.00;99.90;;;;;;5056004;28;20111;-73
2023/02/15 12:30:15;;;;;;;54.72;28.15;;;10.00;99.90;;;;;;5059485;28;21028;-73
2023/02/15 12:33:05;;;;;;;47.65;28.65;;;10.00;99.90;;;;;;5062151;28;20547;-73
2023/02/15 12:35:34;;;;;;;48.70;27.65;;;10.00;99.90;;;;;;5071978;28;20052;-72
2023/02/15 12:38:20;;;;;;;43.63;27.27;;;10.00;99.90;;;;;;5054514;28;20449;-73
2023/02/15 12:41:04;;;;;;;45.25;28.33;;;10.00;99.90;;;;;;5080203;28;20161;-73
2023/02/15 12:43:34;;;;;;;45.60;27.13;;;10.20;99.90;;;;;;5060626;28;20044;-73
2023/02/15 12:46:18;;;;;;;45.28;27.90;;;9.90;99.90;;;;;;5089850;28;20495;-74
2023/02/15 12:48:44;;;;;;;45.30;27.35;;;9.90;99.90;;;;;;5050678;28;20072;-74
2023/02/15 12:51:15;;;;;;;44.45;27.30;;;9.90;99.90;;;;;;5072782;28;20071;-73
2023/02/15 12:53:40;;;;;;;43.53;26.70;;;9.90;99.90;;;;;;5069296;28;20032;-73
2023/02/15 12:56:09;;;;;;;50.75;28.60;;;9.90;99.90;;;;;;5033852;28;20094;-73
2023/02/15 12:58:41;;;;;;;46.63;27.45;;;10.00;99.90;;;;;;5074280;28;20051;-73
2023/02/15 13:01:16;;;;;;;41.67;25.67;;;10.00;99.90;;;;;;5052123;28;20044;-73
2023/02/15 13:03:55;;;;;;;44.03;26.65;;;10.10;99.90;;;;;;5056999;28;20083;-73
2023/02/15 13:06:22;;;;;;;42.53;26.23;;;10.10;99.90;;;;;;5055487;28;20427;-73
2023/02/15 13:08:53;;;;;;;42.55;26.92;;;10.10;99.90;;;;;;5055969;28;20044;-73
2023/02/15 13:11:33;;;;;;;44.15;27.13;;;10.00;99.90;;;;;;5052537;28;20583;-73
2023/02/15 13:14:02;;;;;;;47.45;27.55;;;10.00;99.90;;;;;;5061096;28;20048;-72
2023/02/15 13:16:36;;;;;;;42.22;26.67;;;10.10;99.90;;;;;;5058529;28;20520;-73
2023/02/15 13:19:17;;;;;;;44.70;27.23;;;10.10;99.90;;;;;;5066971;28;20039;-73
2023/02/15 13:21:47;;;;;;;44.53;27.10;;;10.10;99.90;;;;;;5054577;28;20112;-72
2023/02/15 13:24:19;;;;;;;46.08;27.42;;;10.10;99.90;;;;;;5055572;28;20484;-73